createdAt,value
2017-06-18T04:53:49.576Z,10.90
2017-06-18T04:56:16.535Z,12.27
2017-06-18T04:58:43.322Z,11.07
2017-06-18T05:01:10.114Z,11.40
2017-06-18T05:03:36.923Z,10.60
2017-06-18T05:06:03.671Z,10.67
2017-06-18T05:08:30.442Z,10.77
2017-06-18T05:10:57.248Z,9.13
2017-06-18T05:13:23.999Z,10.03
2017-06-18T05:15:50.754Z,10.70
2017-06-18T05:18:17.563Z,8.37
2017-06-18T05:20:44.380Z,8.40
2017-06-18T05:23:11.123Z,8.73
2017-06-18T05:25:37.928Z,7.73
2017-06-18T05:28:04.691Z,9.67
2017-06-18T05:30:31.453Z,9.40
2017-06-18T05:32:58.228Z,8.47
2017-06-18T05:35:24.980Z,8.17
2017-06-18T05:37:51.750Z,7.67
2017-06-18T05:40:18.542Z,8.73
2017-06-18T05:42:45.286Z,6.00
2017-06-18T05:45:12.071Z,9.00
2017-06-18T05:47:38.859Z,8.10
2017-06-18T05:50:05.603Z,8.20
2017-06-18T05:52:32.351Z,7.80
2017-06-18T05:54:59.140Z,2.83
2017-06-18T05:57:25.878Z,8.50
2017-06-18T05:59:52.637Z,6.73
2017-06-18T06:02:19.422Z,6.57
2017-06-18T06:04:46.206Z,7.37
2017-06-18T06:07:12.987Z,6.50
2017-06-18T06:09:39.797Z,7.20
2017-06-18T06:12:06.558Z,7.73
2017-06-18T06:14:33.370Z,7.87
2017-06-18T06:17:00.161Z,7.30
2017-06-18T06:19:26.932Z,9.37
2017-06-18T06:21:53.679Z,8.40
2017-06-18T06:24:20.460Z,7.33
2017-06-18T06:26:47.203Z,8.80
2017-06-18T06:29:13.942Z,5.27
2017-06-18T06:31:40.739Z,7.40
2017-06-18T06:34:07.489Z,7.80
2017-06-18T06:36:34.231Z,7.00
2017-06-18T06:39:01.027Z,7.50
2017-06-18T06:41:27.777Z,4.10
2017-06-18T06:43:54.534Z,7.90
2017-06-18T06:46:21.341Z,8.40
2017-06-18T06:48:48.094Z,7.80
2017-06-18T06:51:14.865Z,8.40
2017-06-18T06:53:41.634Z,8.13
2017-06-18T06:56:08.379Z,8.33
2017-06-18T06:58:35.147Z,6.03
2017-06-18T07:01:01.959Z,8.80
2017-06-18T07:03:28.697Z,7.47
2017-06-18T07:05:55.465Z,2.17
2017-06-18T07:08:22.267Z,7.13
2017-06-18T07:10:49.045Z,7.50
2017-06-18T07:13:15.818Z,7.17
2017-06-18T07:15:42.986Z,7.23
2017-06-18T07:18:09.791Z,8.30
2017-06-18T07:20:36.579Z,6.70
2017-06-18T07:23:03.404Z,5.73
2017-06-18T07:25:30.173Z,7.00
2017-06-18T07:27:56.936Z,6.60
2017-06-18T07:30:23.746Z,7.53
2017-06-18T07:32:50.486Z,7.90
2017-06-18T07:35:17.242Z,7.13
2017-06-18T07:37:44.045Z,6.60
2017-06-18T07:40:10.788Z,5.87
2017-06-18T07:42:37.565Z,6.93
2017-06-18T07:45:04.346Z,6.40
2017-06-18T07:47:31.113Z,7.20
2017-06-18T07:49:57.860Z,6.77
2017-06-18T07:52:24.646Z,6.40
2017-06-18T07:54:51.379Z,7.23
2017-06-18T07:57:18.116Z,6.77
2017-06-18T07:59:44.902Z,6.80
2017-06-18T08:02:11.641Z,6.23
2017-06-18T08:04:38.375Z,5.37
2017-06-18T08:07:05.154Z,5.40
2017-06-18T08:09:31.914Z,6.20
2017-06-18T08:11:58.672Z,7.23
2017-06-18T08:14:25.442Z,4.40
2017-06-18T08:16:52.198Z,5.53
2017-06-18T08:19:18.961Z,4.87
2017-06-18T08:21:45.745Z,5.87
2017-06-18T08:24:12.488Z,5.07
2017-06-18T08:26:39.246Z,5.20
2017-06-18T08:29:06.390Z,4.63
2017-06-18T08:31:33.139Z,4.13
2017-06-18T08:33:59.888Z,53.33
2017-06-18T08:36:26.677Z,22.93
2017-06-18T08:38:53.447Z,4.90
2017-06-18T08:41:20.238Z,4.10
2017-06-18T08:43:47.039Z,4.40
2017-06-18T08:46:13.788Z,10.57
2017-06-18T08:48:40.544Z,2.83
2017-06-18T08:51:07.318Z,3.03
2017-06-18T08:53:34.055Z,6.00
2017-06-18T08:56:00.798Z,5.60
2017-06-18T08:58:27.605Z,5.23
2017-06-18T09:00:54.364Z,4.93
2017-06-18T09:03:21.099Z,5.40
2017-06-18T09:05:47.881Z,5.37
2017-06-18T09:08:14.611Z,4.50
2017-06-18T09:10:41.348Z,2.20
2017-06-18T09:13:08.122Z,4.33
2017-06-18T09:15:34.877Z,4.60
2017-06-18T09:18:01.631Z,5.40
2017-06-18T09:20:28.796Z,4.40
2017-06-18T09:22:55.540Z,4.03
2017-06-18T09:25:22.321Z,4.80
2017-06-18T09:27:49.121Z,4.17
2017-06-18T09:30:15.908Z,2.90
2017-06-18T09:32:42.643Z,3.80
2017-06-18T09:35:09.453Z,3.80
2017-06-18T09:37:36.206Z,4.43
2017-06-18T09:40:02.976Z,3.23
2017-06-18T09:42:29.757Z,4.47
2017-06-18T09:44:56.516Z,3.90
2017-06-18T09:47:23.269Z,3.90
2017-06-18T09:49:50.039Z,3.27
2017-06-18T09:52:16.774Z,3.37
2017-06-18T09:54:43.510Z,3.60
2017-06-18T09:57:10.306Z,3.43
2017-06-18T09:59:37.074Z,3.50
2017-06-18T10:02:03.825Z,3.77
2017-06-18T10:04:30.613Z,3.57
2017-06-18T10:06:57.355Z,3.10
2017-06-18T10:09:24.127Z,4.97
2017-06-18T10:11:50.919Z,2.90
2017-06-18T10:14:17.655Z,3.03
2017-06-18T10:16:44.411Z,3.17
2017-06-18T10:19:11.208Z,3.00
2017-06-18T10:21:55.616Z,3.27
2017-06-18T10:24:22.398Z,2.13
2017-06-18T10:26:49.155Z,2.63
2017-06-18T10:29:15.895Z,2.90
2017-06-18T10:31:42.668Z,1.97
2017-06-18T10:34:09.433Z,2.20
2017-06-18T10:36:36.176Z,2.43
2017-06-18T10:39:03.001Z,2.80
2017-06-18T10:41:29.765Z,2.53
2017-06-18T10:43:56.533Z,3.70
2017-06-18T10:46:23.325Z,2.37
2017-06-18T10:48:50.078Z,2.30
2017-06-18T10:51:16.826Z,2.60
2017-06-18T10:53:43.618Z,2.93
2017-06-18T10:56:10.370Z,2.80
2017-06-18T10:58:37.149Z,2.30
2017-06-18T11:01:03.935Z,3.80
2017-06-18T11:03:30.701Z,8.87
2017-06-18T11:05:57.473Z,999.90
2017-06-18T11:08:24.285Z,999.90
2017-06-18T11:10:51.076Z,3.13
2017-06-18T11:13:17.874Z,2.23
2017-06-18T11:15:44.667Z,85.37
2017-06-18T11:18:11.426Z,5.40
2017-06-18T11:20:38.189Z,2.60
2017-06-18T11:23:05.015Z,15.17
2017-06-18T11:25:31.869Z,49.43
2017-06-18T11:27:58.695Z,3.13
2017-06-18T11:30:25.516Z,2.67
2017-06-18T11:35:25.566Z,2.70
2017-06-18T11:37:52.307Z,2.60
2017-06-18T11:40:19.072Z,2.60
2017-06-18T11:42:45.874Z,3.30
2017-06-18T11:45:12.637Z,2.80
2017-06-18T11:47:39.394Z,50.20
2017-06-18T11:50:06.198Z,2.57
2017-06-18T11:52:32.947Z,3.10
2017-06-18T11:54:59.695Z,2.43
2017-06-18T11:57:26.483Z,3.30
2017-06-18T11:59:53.226Z,2.90
2017-06-18T12:02:19.987Z,2.70
2017-06-18T12:04:46.779Z,2.30
2017-06-18T12:07:13.550Z,2.23
2017-06-18T12:09:40.291Z,73.43
2017-06-18T12:12:07.105Z,3.90
2017-06-18T12:14:33.895Z,3.63
2017-06-18T12:17:00.652Z,3.50
2017-06-18T12:19:27.451Z,3.40
2017-06-18T12:21:54.210Z,1.97
2017-06-18T12:24:20.968Z,3.43
2017-06-18T12:26:47.793Z,2.90
2017-06-18T12:29:14.565Z,2.30
2017-06-18T12:31:41.339Z,3.07
2017-06-18T12:34:08.138Z,2.70
2017-06-18T12:36:34.884Z,2.10
2017-06-18T12:39:01.680Z,2.80
2017-06-18T12:41:28.489Z,2.50
2017-06-18T12:43:55.250Z,3.20
2017-06-18T12:46:22.009Z,2.47
2017-06-18T12:48:48.800Z,2.73
2017-06-18T12:51:15.570Z,3.10
2017-06-18T12:53:42.321Z,2.23
2017-06-18T12:56:09.103Z,2.80
2017-06-18T12:58:35.862Z,2.90
2017-06-18T13:01:02.622Z,3.13
2017-06-18T13:03:29.414Z,3.20
2017-06-18T13:05:56.178Z,3.80
2017-06-18T13:08:22.920Z,3.10
2017-06-18T13:10:49.720Z,2.87
2017-06-18T13:13:16.477Z,2.90
2017-06-18T13:15:43.225Z,3.30
2017-06-18T13:18:10.002Z,3.90
2017-06-18T13:20:36.769Z,2.77
2017-06-18T13:23:03.513Z,2.60
2017-06-18T13:25:30.307Z,3.97
2017-06-18T13:27:57.087Z,3.07
2017-06-18T13:30:23.854Z,2.60
2017-06-18T13:32:50.646Z,2.87
2017-06-18T13:35:17.410Z,3.00
2017-06-18T13:37:44.187Z,2.10
2017-06-18T13:40:11.001Z,14.17
2017-06-18T13:42:37.770Z,3.13
2017-06-18T13:45:04.528Z,3.27
2017-06-18T13:47:31.345Z,3.00
2017-06-18T13:49:58.080Z,4.17
2017-06-18T13:52:24.824Z,24.23
2017-06-18T13:54:51.694Z,437.77
2017-06-18T13:57:18.477Z,999.90
2017-06-18T13:59:45.374Z,999.90
2017-06-18T14:02:12.163Z,999.90
2017-06-18T14:04:38.962Z,999.90
2017-06-18T14:07:05.720Z,999.90
2017-06-18T14:09:32.528Z,999.90
2017-06-18T14:11:59.304Z,999.90
2017-06-18T14:14:26.115Z,999.90
2017-06-18T14:16:52.902Z,999.90
2017-06-18T14:19:19.666Z,999.90
2017-06-18T14:21:46.433Z,999.90
2017-06-18T14:24:13.243Z,999.90
2017-06-18T14:26:40.018Z,999.90
2017-06-18T14:29:06.783Z,999.90
2017-06-18T14:31:33.592Z,999.90
2017-06-18T14:34:00.357Z,999.90
2017-06-18T14:36:27.134Z,999.90
2017-06-18T14:38:53.959Z,999.90
2017-06-18T14:41:20.736Z,999.90
2017-06-18T14:43:47.926Z,999.90
2017-06-18T14:46:14.783Z,999.90
2017-06-18T14:48:41.548Z,999.90
2017-06-18T14:51:08.325Z,999.90
2017-06-18T14:53:35.154Z,999.90
2017-06-18T14:56:01.942Z,999.90
2017-06-18T14:58:28.736Z,999.90
2017-06-18T15:00:55.555Z,999.90
2017-06-18T15:03:22.369Z,13.00
2017-06-18T15:05:49.159Z,5.13
2017-06-18T15:08:15.978Z,3.43
2017-06-18T15:10:42.751Z,3.40
2017-06-18T15:13:09.506Z,4.27
2017-06-18T15:15:36.315Z,4.50
2017-06-18T15:18:03.099Z,4.90
2017-06-18T15:20:29.875Z,999.90
2017-06-18T15:22:56.671Z,999.90
2017-06-18T15:25:23.416Z,3.03
2017-06-18T15:27:50.191Z,3.03
2017-06-18T15:30:17.026Z,3.87
2017-06-18T15:32:43.786Z,3.93
2017-06-18T15:35:10.561Z,3.60
2017-06-18T15:37:37.384Z,3.47
2017-06-18T15:40:04.162Z,3.60
2017-06-18T15:42:30.926Z,3.20
2017-06-18T15:44:57.710Z,3.40
2017-06-18T15:47:24.467Z,3.00
2017-06-18T15:49:51.239Z,2.80
2017-06-18T15:52:18.041Z,2.80
2017-06-18T15:54:44.810Z,2.93
2017-06-18T15:57:11.623Z,3.10
2017-06-18T15:59:38.436Z,3.20
2017-06-18T16:02:05.195Z,3.30
2017-06-18T16:04:31.989Z,3.10
2017-06-18T16:06:58.807Z,48.13
2017-06-18T16:09:25.587Z,3.47
2017-06-18T16:11:52.320Z,3.23
2017-06-18T16:14:19.123Z,3.37
2017-06-18T16:16:45.886Z,3.97
2017-06-18T16:19:12.629Z,3.07
2017-06-18T16:21:39.439Z,3.13
2017-06-18T16:24:06.214Z,3.83
2017-06-18T16:26:32.982Z,3.60
2017-06-18T16:28:59.832Z,4.37
2017-06-18T16:31:26.598Z,4.83
2017-06-18T16:33:53.355Z,3.90
2017-06-18T16:36:20.166Z,3.77
2017-06-18T16:38:46.959Z,3.77
2017-06-18T16:41:13.711Z,3.60
2017-06-18T16:43:40.511Z,8.53
2017-06-18T16:46:57.179Z,3.60
2017-06-18T16:49:23.984Z,2.87
2017-06-18T16:51:50.746Z,2.70
2017-06-18T16:54:17.484Z,3.60
2017-06-18T16:56:44.280Z,3.23
2017-06-18T16:59:11.048Z,3.10
2017-06-18T17:01:37.814Z,3.50
2017-06-18T17:04:04.649Z,3.70
2017-06-18T17:06:31.439Z,4.10
2017-06-18T17:08:58.186Z,4.00
2017-06-18T17:11:25.002Z,3.60
2017-06-18T17:13:51.767Z,4.40
2017-06-18T17:16:18.508Z,4.73
2017-06-18T17:18:45.286Z,8.53
2017-06-18T17:21:26.916Z,3.60
2017-06-18T17:23:53.765Z,3.73
2017-06-18T17:26:20.529Z,3.70
2017-06-18T17:28:47.284Z,3.73
2017-06-18T17:31:14.064Z,3.63
2017-06-18T17:33:40.880Z,3.63
2017-06-18T17:36:07.635Z,3.83
2017-06-18T17:38:34.437Z,3.97
2017-06-18T17:41:01.187Z,3.30
2017-06-18T17:43:27.949Z,3.50
2017-06-18T17:45:54.759Z,999.90
2017-06-18T17:48:21.537Z,50.30
2017-06-18T17:50:48.329Z,999.90
2017-06-18T17:53:15.135Z,34.63
2017-06-18T17:55:41.906Z,26.73
2017-06-18T17:58:08.701Z,29.50
2017-06-18T18:00:35.542Z,34.40
2017-06-18T18:03:02.311Z,28.90
2017-06-18T18:05:29.149Z,25.97
2017-06-18T18:07:55.988Z,30.07
2017-06-18T18:10:22.781Z,999.90
2017-06-18T18:12:49.591Z,999.90
2017-06-18T18:15:16.481Z,999.90
2017-06-18T18:17:43.265Z,999.90
2017-06-18T18:20:10.175Z,999.90
2017-06-18T18:22:36.976Z,31.23
2017-06-18T18:25:03.745Z,24.23
2017-06-18T18:27:30.556Z,999.90
2017-06-18T18:29:57.429Z,999.90
2017-06-18T18:32:24.321Z,999.90
2017-06-18T18:34:51.266Z,999.90
2017-06-18T18:37:18.217Z,999.90
2017-06-18T18:39:45.224Z,999.90
2017-06-18T18:42:14.012Z,35.13
2017-06-18T18:44:41.306Z,4.77
2017-06-18T18:47:08.369Z,2.67
2017-06-18T18:49:35.430Z,3.40
2017-06-18T18:52:02.572Z,3.00
2017-06-18T18:54:29.651Z,3.20
2017-06-18T18:56:56.777Z,3.60
2017-06-18T18:59:23.926Z,3.40
2017-06-18T19:01:51.029Z,2.90
2017-06-18T19:04:18.104Z,3.93
2017-06-18T19:06:45.261Z,3.80
2017-06-18T19:09:12.338Z,3.60
2017-06-18T19:11:39.406Z,3.43
2017-06-18T19:14:06.542Z,3.67
2017-06-18T19:16:33.624Z,3.53
2017-06-18T19:19:00.739Z,3.73
2017-06-18T19:21:27.850Z,3.40
2017-06-18T19:23:54.936Z,3.67
2017-06-18T19:26:22.039Z,3.93
2017-06-18T19:28:49.159Z,4.07
2017-06-18T19:31:16.228Z,4.60
2017-06-18T19:33:43.302Z,4.07
2017-06-18T19:36:10.432Z,4.47
2017-06-18T19:38:37.235Z,18.13
2017-06-18T19:41:04.001Z,4.97
2017-06-18T19:43:30.804Z,5.03
2017-06-18T19:45:57.573Z,12.33
2017-06-18T19:48:24.298Z,4.50
2017-06-18T19:50:51.158Z,87.53
2017-06-18T19:53:17.995Z,75.57
2017-06-18T19:55:44.775Z,4.37
2017-06-18T19:58:11.614Z,7.10
2017-06-18T20:00:38.415Z,5.23
2017-06-18T20:03:05.229Z,7.00
2017-06-18T20:05:32.054Z,12.93
2017-06-18T20:07:58.811Z,5.63
2017-06-18T20:10:25.587Z,6.40
2017-06-18T20:12:52.394Z,22.80
2017-06-18T20:15:19.193Z,5.40
2017-06-18T20:17:45.937Z,5.70
2017-06-18T20:20:12.732Z,7.30
2017-06-18T20:22:39.687Z,246.33
2017-06-18T20:25:07.483Z,999.90
2017-06-18T20:27:34.383Z,999.90
2017-06-18T20:30:02.218Z,999.90
2017-06-18T20:32:29.024Z,999.90
2017-06-18T20:34:55.836Z,999.90
2017-06-18T20:37:22.642Z,999.90
2017-06-18T20:39:50.108Z,999.90
2017-06-18T20:42:17.059Z,999.90
2017-06-18T20:44:43.835Z,999.90
2017-06-18T20:47:10.655Z,999.90
2017-06-18T20:49:37.459Z,241.43
2017-06-18T20:52:04.266Z,4.17
2017-06-18T20:54:31.287Z,4.00
2017-06-18T20:56:59.646Z,4.40
2017-06-18T20:59:26.456Z,5.00
2017-06-18T21:01:53.265Z,209.80
2017-06-18T21:04:20.077Z,4.90
2017-06-18T21:06:46.815Z,4.13
2017-06-18T21:09:13.609Z,999.90
2017-06-18T21:11:40.488Z,361.17
2017-06-18T21:14:09.050Z,5.00
2017-06-18T21:16:36.124Z,6.13
2017-06-18T21:19:05.981Z,5.67
2017-06-18T21:21:32.750Z,4.80
2017-06-18T21:23:59.521Z,5.63
2017-06-18T21:26:26.303Z,5.57
2017-06-18T21:28:53.067Z,5.20
2017-06-18T21:31:19.838Z,6.30
2017-06-18T21:33:46.618Z,5.97
2017-06-18T21:36:13.458Z,5.60
2017-06-18T21:38:40.202Z,5.00
2017-06-18T21:41:07.040Z,6.20
2017-06-18T21:43:33.794Z,5.20
2017-06-18T21:46:00.584Z,5.07
2017-06-18T21:48:27.374Z,5.70
2017-06-18T21:50:54.123Z,5.10
2017-06-18T21:53:20.894Z,5.83
2017-06-18T21:55:47.713Z,7.80
2017-06-18T21:58:14.478Z,5.13
2017-06-18T22:00:41.227Z,5.00
2017-06-18T22:03:08.021Z,5.80
2017-06-18T22:05:34.777Z,5.67
2017-06-18T22:08:01.545Z,5.80
2017-06-18T22:10:28.335Z,5.23
2017-06-18T22:12:55.073Z,4.63
2017-06-18T22:15:21.814Z,4.83
2017-06-18T22:17:48.600Z,4.93
2017-06-18T22:20:15.335Z,5.03
